Avellaneda, Argentina
Current Conditions -  °F | °C
As of 3:00 PM on Thursday 30 Oct 2014 (Local Time) from SABE Reporting Station
Few Clouds Few Clouds  
Wind Chill: 73°   Ceiling: Unl
Heat Index: 73°   Visibility: 6mi
Dew Point: 55°   Wind: 8mph
Humidity: 53%   Direction: 60°ENE
Pressure: 29.83"   Gusts: NA
Location:  34.57°S, 58.38°W
Report Text: SABE 301800Z 06007KT 360V130 9999 FEW04523/13 Q1010
Loading
Personal Weather Stations






























Interactive Weather Map
Tropical Storm Tracking
New forecast layout! Learn more

10-Day Weather Forecast

Advertisements
Track Severe Weather on mobile